.
WxDataArchive / Data Records for 2015-11-13
2015-11-12 November 2015 2015-11-14

Data Records for Friday, 13 November 2015

Time	Temp	Chill	HIndex	Humid	Dewpt	 Wind 	HiWind	WindDir	Rain 	Barom
-----	----	-----	------	-----	-----	------	------	-------	-----	-----
00:00	43.3	41.1	43.3	61	30.8	4	11	270	0.00	29.782 
00:05	43.2	43.2	43.2	62	31.1	2	6	270	0.00	29.782 
00:10	43.1	40.9	43.1	62	31.0	4	9	270	0.00	29.782 
00:15	42.9	40.7	42.9	62	30.8	4	9	248	0.00	29.792 
00:20	42.8	40.6	42.8	62	30.7	4	10	270	0.00	29.792 
00:25	42.6	40.3	42.6	61	30.1	4	11	270	0.00	29.792 
00:30	42.6	39.5	42.6	61	30.1	5	11	270	0.00	29.797 
00:35	42.5	40.2	42.5	60	29.6	4	10	270	0.00	29.797 
00:40	42.5	39.4	42.5	60	29.6	5	10	270	0.00	29.797 
00:45	42.3	39.2	42.3	60	29.4	5	18	270	0.00	29.808 
00:50	42.3	39.2	42.3	60	29.4	5	11	270	0.00	29.808 
00:55	42.3	39.2	42.3	60	29.4	5	10	270	0.00	29.808 
01:00	42.3	39.2	42.3	60	29.4	5	10	270	0.00	29.807 
01:05	42.3	40.0	42.3	60	29.4	4	7	270	0.00	29.807 
01:10	42.3	40.0	42.3	60	29.4	4	12	270	0.00	29.807 
01:15	42.2	39.9	42.2	60	29.3	4	9	270	0.00	29.812 
01:20	42.2	39.9	42.2	60	29.3	4	7	270	0.00	29.812 
01:25	42.2	42.2	42.2	60	29.3	3	9	270	0.00	29.812 
01:30	42.2	39.1	42.2	58	28.5	5	10	270	0.00	29.811 
01:35	42.2	39.1	42.2	60	29.3	5	11	270	0.00	29.811 
01:40	42.2	39.1	42.2	60	29.3	5	10	270	0.00	29.811 
01:45	42.2	42.2	42.2	60	29.3	3	8	270	0.00	29.812 
01:50	42.3	39.2	42.3	60	29.4	5	11	270	0.00	29.812 
01:55	42.3	40.0	42.3	59	29.0	4	10	270	0.00	29.812 
02:00	42.3	39.2	42.3	59	29.0	5	9	270	0.00	29.814 
02:05	42.5	39.4	42.5	59	29.2	5	13	270	0.00	29.814 
02:10	42.3	42.3	42.3	59	29.0	3	8	270	0.00	29.814 
02:15	42.5	39.4	42.5	59	29.2	5	10	270	0.00	29.815 
02:20	42.5	38.7	42.5	58	28.8	6	10	270	0.00	29.815 
02:25	42.6	38.9	42.6	59	29.3	6	13	270	0.00	29.815 
02:30	42.5	40.2	42.5	59	29.2	4	9	270	0.00	29.821 
02:35	42.5	40.2	42.5	60	29.6	4	9	292	0.00	29.821 
02:40	42.5	42.5	42.5	60	29.6	3	9	270	0.00	29.821 
02:45	42.5	40.2	42.5	60	29.6	4	7	270	0.00	29.820 
02:50	42.5	40.2	42.5	59	29.2	4	10	248	0.00	29.820 
02:55	42.5	40.2	42.5	60	29.6	4	8	270	0.00	29.820 
03:00	42.5	42.5	42.5	60	29.6	3	10	248	0.00	29.819 
03:05	42.5	42.5	42.5	60	29.6	3	6	248	0.00	29.819 
03:10	42.3	42.3	42.3	60	29.4	3	9	270	0.00	29.819 
03:15	42.3	40.0	42.3	61	29.8	4	6	270	0.00	29.825 
03:20	42.3	42.3	42.3	61	29.8	3	7	270	0.00	29.825 
03:25	42.3	42.3	42.3	62	30.2	1	4	270	0.00	29.825 
03:30	42.2	42.2	42.2	62	30.1	3	6	270	0.00	29.826 
03:35	42.2	42.2	42.2	62	30.1	3	6	270	0.00	29.826 
03:40	42.2	42.2	42.2	62	30.1	1	5	270	0.00	29.826 
03:45	42.1	42.1	42.1	62	30.0	2	7	270	0.00	29.830 
03:50	42.1	42.1	42.1	62	30.0	3	6	270	0.00	29.830 
03:55	41.9	41.9	41.9	62	29.8	3	6	270	0.00	29.830 
04:00	41.8	39.4	41.8	62	29.7	4	11	270	0.00	29.830 
04:05	41.8	39.4	41.8	62	29.7	4	10	270	0.00	29.830 
04:10	41.6	39.2	41.6	62	29.6	4	7	292	0.00	29.830 
04:15	41.5	39.1	41.5	62	29.5	4	10	248	0.00	29.830 
04:20	41.3	38.8	41.3	62	29.3	4	7	270	0.00	29.830 
04:25	41.3	38.8	41.3	62	29.3	4	10	270	0.00	29.830 
04:30	41.2	41.2	41.2	63	29.6	3	6	248	0.00	29.837 
04:35	41.1	41.1	41.1	63	29.5	3	10	248	0.00	29.837 
04:40	40.9	40.9	40.9	64	29.7	3	9	270	0.00	29.837 
04:45	40.8	38.2	40.8	63	29.2	4	9	270	0.00	29.844 
04:50	40.6	40.6	40.6	64	29.4	3	9	270	0.00	29.844 
04:55	40.6	40.6	40.6	64	29.4	3	7	270	0.00	29.844 
05:00	40.5	40.5	40.5	64	29.3	3	11	270	0.00	29.848 
05:05	40.3	37.7	40.3	64	29.1	4	8	270	0.00	29.848 
05:10	40.1	37.4	40.1	64	28.9	4	7	270	0.00	29.848 
05:15	39.9	37.2	39.9	64	28.7	4	9	270	0.00	29.857 
05:20	39.8	39.8	39.8	65	29.0	3	8	270	0.00	29.857 
05:25	39.5	39.5	39.5	65	28.7	3	7	270	0.00	29.857 
05:30	39.3	36.5	39.3	65	28.5	4	9	270	0.00	29.862 
05:35	39.1	39.1	39.1	66	28.7	3	8	270	0.00	29.862 
05:40	38.9	36.0	38.9	66	28.5	4	9	270	0.00	29.862 
05:45	38.8	38.8	38.8	66	28.4	3	10	270	0.00	29.865 
05:50	38.6	38.6	38.6	67	28.6	3	9	270	0.00	29.865 
05:55	38.5	38.5	38.5	67	28.5	3	7	270	0.00	29.865 
06:00	38.3	38.3	38.3	67	28.3	3	8	270	0.00	29.868 
06:05	38.2	38.2	38.2	67	28.2	3	6	270	0.00	29.868 
06:10	38.2	38.2	38.2	68	28.6	2	5	270	0.00	29.868 
06:15	38.0	38.0	38.0	68	28.4	2	7	270	0.00	29.874 
06:20	37.9	37.9	37.9	69	28.7	2	10	248	0.00	29.874 
06:25	37.8	37.8	37.8	69	28.6	3	7	248	0.00	29.874 
06:30	37.8	37.8	37.8	69	28.6	2	6	248	0.00	29.879 
06:35	37.6	37.6	37.6	69	28.4	1	5	248	0.00	29.879 
06:40	37.5	37.5	37.5	69	28.3	3	6	248	0.00	29.879 
06:45	37.3	37.3	37.3	70	28.4	2	7	248	0.00	29.881 
06:50	37.2	37.2	37.2	70	28.3	2	4	248	0.00	29.881 
06:55	37.2	37.2	37.2	71	28.7	2	5	248	0.00	29.881 
07:00	37.0	37.0	37.0	71	28.5	1	4	270	0.00	29.889 
07:05	36.9	36.9	36.9	72	28.7	2	6	270	0.00	29.889 
07:10	37.0	37.0	37.0	72	28.8	2	7	248	0.00	29.889 
07:15	37.0	37.0	37.0	72	28.8	3	6	270	0.00	29.894 
07:20	37.2	37.2	37.2	72	29.0	1	6	248	0.00	29.894 
07:25	37.2	37.2	37.2	72	29.0	2	5	248	0.00	29.894 
07:30	37.3	37.3	37.3	71	28.8	2	5	270	0.00	29.895 
07:35	37.3	37.3	37.3	71	28.8	3	6	270	0.00	29.895 
07:40	37.5	37.5	37.5	71	29.0	2	6	248	0.00	29.895 
07:45	37.5	37.5	37.5	71	29.0	2	6	248	0.00	29.902 
07:50	37.6	37.6	37.6	70	28.7	2	7	248	0.00	29.902 
07:55	37.6	37.6	37.6	70	28.7	2	9	248	0.00	29.902 
08:00	37.8	37.8	37.8	70	28.9	2	6	248	0.00	29.908 
08:05	37.8	37.8	37.8	70	28.9	2	4	248	0.00	29.908 
08:10	37.9	37.9	37.9	69	28.7	2	6	225	0.00	29.908 
08:15	38.0	38.0	38.0	69	28.7	3	6	292	0.00	29.909 
08:20	38.2	38.2	38.2	69	28.9	3	6	248	0.00	29.909 
08:25	38.3	38.3	38.3	69	29.0	1	6	248	0.00	29.909 
08:30	38.3	38.3	38.3	69	29.0	1	5	270	0.00	29.917 
08:35	38.5	38.5	38.5	69	29.2	2	7	270	0.00	29.917 
08:40	38.5	38.5	38.5	68	28.9	2	9	248	0.00	29.917 
08:45	38.6	38.6	38.6	69	29.3	1	3	248	0.00	29.925 
08:50	38.8	38.8	38.8	69	29.5	2	6	248	0.00	29.925 
08:55	38.6	38.6	38.6	69	29.3	2	7	248	0.00	29.925 
09:00	38.6	38.6	38.6	68	29.0	3	7	248	0.00	29.932 
09:05	38.6	38.6	38.6	69	29.3	2	5	248	0.00	29.932 
09:10	38.8	38.8	38.8	69	29.5	1	4	248	0.00	29.932 
09:15	38.8	38.8	38.8	68	29.2	2	9	248	0.00	29.928 
09:20	38.8	38.8	38.8	68	29.2	2	6	248	0.00	29.928 
09:25	38.9	38.9	38.9	68	29.3	2	7	248	0.00	29.928 
09:30	39.1	39.1	39.1	67	29.1	3	7	248	0.00	29.932 
09:35	39.2	39.2	39.2	68	29.5	2	6	248	0.00	29.932 
09:40	39.2	39.2	39.2	67	29.2	3	12	248	0.00	29.932 
09:45	39.3	39.3	39.3	67	29.3	2	6	248	0.00	29.934 
09:50	39.3	39.3	39.3	67	29.3	3	10	248	0.00	29.934 
09:55	39.3	39.3	39.3	67	29.3	3	9	248	0.00	29.934 
10:00	39.3	39.3	39.3	66	28.9	3	12	248	0.00	29.934 
10:05	39.5	39.5	39.5	67	29.5	3	9	248	0.00	29.934 
10:10	39.8	39.8	39.8	66	29.4	3	6	248	0.00	29.934 
10:15	39.6	36.9	39.6	65	28.8	4	8	248	0.00	29.939 
10:20	39.9	37.2	39.9	65	29.1	4	11	270	0.00	29.939 
10:25	40.2	37.5	40.2	65	29.4	4	10	270	0.00	29.939 
10:30	40.6	40.6	40.6	65	29.8	3	5	248	0.00	29.942 
10:35	40.8	38.2	40.8	63	29.2	4	7	248	0.00	29.942 
10:40	40.8	38.2	40.8	63	29.2	4	7	270	0.00	29.942 
10:45	40.8	38.2	40.8	64	29.6	4	9	270	0.00	29.942 
10:50	40.6	37.2	40.6	62	28.6	5	11	248	0.00	29.942 
10:55	40.6	37.2	40.6	61	28.2	5	11	270	0.00	29.942 
11:00	40.9	38.4	40.9	58	27.3	4	10	248	0.00	29.955 
11:05	41.3	38.8	41.3	57	27.2	4	9	270	0.00	29.955 
11:10	41.6	38.4	41.6	57	27.5	5	10	270	0.00	29.955 
11:15	41.3	38.0	41.3	57	27.2	5	11	270	0.00	29.958 
11:20	41.1	38.6	41.1	58	27.5	4	10	270	0.00	29.958 
11:25	41.2	38.7	41.2	58	27.6	4	10	270	0.00	29.958 
11:30	41.2	38.7	41.2	58	27.6	4	10	270	0.00	29.965 
11:35	41.3	38.0	41.3	57	27.2	5	10	270	0.00	29.965 
11:40	41.2	37.2	41.2	56	26.7	6	12	270	0.00	29.965 
11:45	41.5	38.2	41.5	56	27.0	5	10	270	0.00	29.961 
11:50	41.9	38.7	41.9	56	27.4	5	13	270	0.00	29.961 
11:55	41.9	38.7	41.9	54	26.5	5	11	270	0.00	29.961 
12:00	41.3	38.0	41.3	55	26.4	5	9	270	0.00	29.961 
12:05	41.9	41.9	41.9	56	27.4	3	6	270	0.00	29.961 
12:10	41.9	41.9	41.9	56	27.4	3	5	270	0.00	29.961 
12:15	42.3	40.0	42.3	54	26.9	4	7	270	0.00	29.958 
12:20	42.2	42.2	42.2	55	27.2	3	6	270	0.00	29.958 
12:25	41.9	38.7	41.9	54	26.5	5	10	270	0.00	29.958 
12:30	42.6	39.5	42.6	54	27.1	5	12	270	0.00	29.950 
12:35	43.2	41.0	43.2	52	26.8	4	10	248	0.00	29.950 
12:40	43.2	40.2	43.2	51	26.3	5	11	270	0.00	29.950 
12:45	43.2	40.2	43.2	51	26.3	5	10	270	0.00	29.943 
12:50	43.3	43.3	43.3	51	26.4	3	6	248	0.00	29.943 
12:55	43.8	41.7	43.8	52	27.3	4	7	270	0.00	29.943 
13:00	44.3	41.5	44.3	48	25.9	5	11	270	0.00	29.938 
13:05	44.2	42.2	44.2	49	26.3	4	7	270	0.00	29.938 
13:10	44.3	42.3	44.3	48	25.9	4	9	270	0.00	29.938 
13:15	44.6	42.6	44.6	48	26.1	4	7	270	0.00	29.935 
13:20	44.6	42.6	44.6	46	25.1	4	11	248	0.00	29.935 
13:25	44.8	42.1	44.8	45	24.8	5	9	270	0.00	29.935 
13:30	44.8	42.9	44.8	45	24.8	4	10	270	0.00	29.931 
13:35	44.9	43.0	44.9	45	24.9	4	11	248	0.00	29.931 
13:40	45.4	43.6	45.4	44	24.8	4	13	270	0.00	29.931 
13:45	45.7	43.2	45.7	41	23.4	5	7	270	0.00	29.936 
13:50	46.1	43.6	46.1	41	23.7	5	10	270	0.00	29.936 
13:55	46.4	44.0	46.4	39	22.8	5	11	292	0.00	29.936 
14:00	46.0	42.9	46.0	40	23.0	6	12	270	0.00	29.939 
14:05	45.4	42.8	45.4	41	23.1	5	11	270	0.00	29.939 
14:10	45.7	43.2	45.7	41	23.4	5	13	270	0.00	29.939 
14:15	45.7	43.2	45.7	40	22.8	5	12	292	0.00	29.946 
14:20	45.1	41.8	45.1	40	22.2	6	11	270	0.00	29.946 
14:25	44.8	42.1	44.8	42	23.1	5	12	292	0.00	29.946 
14:30	44.6	41.2	44.6	43	23.5	6	12	270	0.00	29.954 
14:35	44.5	41.8	44.5	43	23.4	5	10	270	0.00	29.954 
14:40	44.3	41.5	44.3	44	23.8	5	9	270	0.00	29.954 
14:45	44.1	41.3	44.1	45	24.1	5	12	292	0.00	29.968 
14:50	43.8	40.3	43.8	44	23.3	6	11	270	0.00	29.968 
14:55	43.6	40.0	43.6	43	22.6	6	13	292	0.00	29.968 
15:00	43.5	39.4	43.5	43	22.5	7	14	270	0.00	29.975 
15:05	43.5	39.9	43.5	44	23.1	6	11	270	0.00	29.975 
15:10	43.5	40.6	43.5	45	23.6	5	12	270	0.00	29.975 
15:15	43.5	41.4	43.5	45	23.6	4	7	270	0.00	29.980 
15:20	43.5	40.6	43.5	45	23.6	5	11	292	0.00	29.980 
15:25	43.6	40.7	43.6	45	23.7	5	12	270	0.00	29.980 
15:30	43.6	41.5	43.6	46	24.2	4	7	270	0.00	29.987 
15:35	43.5	39.9	43.5	46	24.1	6	14	270	0.00	29.987 
15:40	43.3	39.7	43.3	46	23.9	6	11	270	0.00	29.987 
15:45	43.3	40.3	43.3	46	23.9	5	11	270	0.00	29.991 
15:50	43.5	41.4	43.5	46	24.1	4	11	270	0.00	29.991 
15:55	43.3	41.1	43.3	46	23.9	4	9	270	0.00	29.991 
16:00	43.3	40.3	43.3	46	23.9	5	10	270	0.00	30.000 
16:05	43.3	40.3	43.3	46	23.9	5	10	270	0.00	30.000 
16:10	43.3	43.3	43.3	47	24.4	3	11	270	0.00	30.000 
16:15	43.3	41.1	43.3	47	24.4	4	9	270	0.00	30.008 
16:20	43.3	43.3	43.3	47	24.4	3	10	270	0.00	30.008 
16:25	43.2	43.2	43.2	47	24.3	3	7	270	0.00	30.008 
16:30	43.2	41.0	43.2	47	24.3	4	13	292	0.00	30.015 
16:35	43.2	43.2	43.2	48	24.9	3	12	270	0.00	30.015 
16:40	43.1	43.1	43.1	47	24.3	3	7	270	0.00	30.015 
16:45	43.1	40.9	43.1	47	24.3	4	8	270	0.00	30.026 
16:50	42.9	42.9	42.9	48	24.6	3	6	292	0.00	30.026 
16:55	42.9	42.9	42.9	48	24.6	3	10	292	0.00	30.026 
17:00	42.8	40.6	42.8	47	24.0	4	10	292	0.00	30.034 
17:05	42.8	42.8	42.8	48	24.5	3	7	292	0.00	30.034 
17:10	42.8	42.8	42.8	48	24.5	3	7	292	0.00	30.034 
17:15	42.6	42.6	42.6	49	24.8	2	7	292	0.00	30.042 
17:20	42.6	42.6	42.6	49	24.8	2	5	292	0.00	30.042 
17:25	42.5	40.2	42.5	49	24.7	4	6	292	0.00	30.042 
17:30	42.5	40.2	42.5	49	24.7	4	10	292	0.00	30.048 
17:35	42.5	42.5	42.5	50	25.2	2	9	315	0.00	30.048 
17:40	42.5	42.5	42.5	50	25.2	3	12	270	0.00	30.048 
17:45	42.5	42.5	42.5	50	25.2	2	6	270	0.00	30.056 
17:50	42.3	42.3	42.3	50	25.0	2	5	270	0.00	30.056 
17:55	42.3	42.3	42.3	50	25.0	3	8	270	0.00	30.056 
18:00	42.3	42.3	42.3	50	25.0	3	10	315	0.00	30.066 
18:05	42.3	40.0	42.3	50	25.0	4	11	315	0.00	30.066 
18:10	42.3	42.3	42.3	50	25.0	3	7	292	0.00	30.066 
18:15	42.3	42.3	42.3	50	25.0	3	7	315	0.00	30.073 
18:20	42.3	42.3	42.3	50	25.0	3	7	270	0.00	30.073 
18:25	42.3	40.0	42.3	49	24.5	4	9	270	0.00	30.073 
18:30	42.3	42.3	42.3	49	24.5	3	10	292	0.00	30.079 
18:35	42.3	42.3	42.3	50	25.0	2	6	292	0.00	30.079 
18:40	42.3	42.3	42.3	49	24.5	3	10	292	0.00	30.079 
18:45	42.3	42.3	42.3	49	24.5	3	6	292	0.00	30.089 
18:50	42.2	42.2	42.2	50	24.9	2	6	292	0.00	30.089 
18:55	42.2	42.2	42.2	50	24.9	2	5	292	0.00	30.089 
19:00	42.2	42.2	42.2	50	24.9	1	4	292	0.00	30.096 
19:05	42.1	42.1	42.1	50	24.8	1	4	292	0.00	30.096 
19:10	42.1	42.1	42.1	50	24.8	2	5	292	0.00	30.096 
19:15	42.1	42.1	42.1	50	24.8	2	6	270	0.00	30.103 
19:20	42.1	42.1	42.1	50	24.8	3	5	292	0.00	30.103 
19:25	42.1	42.1	42.1	51	25.3	2	6	292	0.00	30.103 
19:30	42.1	42.1	42.1	51	25.3	2	5	270	0.00	30.106 
19:35	41.9	41.9	41.9	51	25.1	1	4	270	0.00	30.106 
19:40	41.8	41.8	41.8	52	25.5	1	3	292	0.00	30.106 
19:45	41.6	41.6	41.6	52	25.3	1	5	292	0.00	30.113 
19:50	41.3	41.3	41.3	53	25.5	1	4	292	0.00	30.113 
19:55	41.1	41.1	41.1	53	25.3	1	4	292	0.00	30.113 
20:00	41.1	41.1	41.1	54	25.7	1	4	292	0.00	30.119 
20:05	40.9	40.9	40.9	54	25.6	2	4	292	0.00	30.119 
20:10	40.8	40.8	40.8	54	25.5	1	3	292	0.00	30.119 
20:15	40.6	40.6	40.6	54	25.3	1	3	292	0.00	30.119 
20:20	40.5	40.5	40.5	55	25.6	1	2	292	0.00	30.119 
20:25	40.3	40.3	40.3	55	25.4	1	5	338	0.00	30.119 
20:30	40.2	40.2	40.2	56	25.8	0	3	338	0.00	30.125 
20:35	39.9	39.9	39.9	57	25.9	0	1	338	0.00	30.125 
20:40	39.6	39.6	39.6	57	25.6	0	1	338	0.00	30.125 
20:45	39.3	39.3	39.3	58	25.8	0	1	338	0.00	30.127 
20:50	39.2	39.2	39.2	58	25.7	0	1	338	0.00	30.127 
20:55	38.9	38.9	38.9	59	25.8	0	1	338	0.00	30.127 
21:00	38.9	38.9	38.9	59	25.8	0	1	338	0.00	30.130 
21:05	38.8	38.8	38.8	60	26.1	0	1	338	0.00	30.130 
21:10	38.6	38.6	38.6	60	25.9	0	2	338	0.00	30.130 
21:15	38.6	38.6	38.6	61	26.3	0	1	338	0.00	30.133 
21:20	38.5	38.5	38.5	61	26.2	0	1	338	0.00	30.133 
21:25	38.3	38.3	38.3	61	26.0	0	1	338	0.00	30.133 
21:30	38.2	38.2	38.2	62	26.3	0	2	338	0.00	30.137 
21:35	38.0	38.0	38.0	62	26.2	0	1	338	0.00	30.137 
21:40	37.8	37.8	37.8	62	26.0	0	1	338	0.00	30.137 
21:45	37.6	37.6	37.6	63	26.2	0	1	338	0.00	30.139 
21:50	37.6	37.6	37.6	63	26.2	0	1	338	0.00	30.139 
21:55	37.5	37.5	37.5	64	26.4	0	1	338	0.00	30.139 
22:00	37.5	37.5	37.5	64	26.4	0	1	338	0.00	30.140 
22:05	37.3	37.3	37.3	64	26.3	0	2	338	0.00	30.140 
22:10	37.2	37.2	37.2	65	26.5	0	1	338	0.00	30.140 
22:15	37.2	37.2	37.2	65	26.5	0	1	338	0.00	30.144 
22:20	37.2	37.2	37.2	65	26.5	0	1	338	0.00	30.144 
22:25	37.0	37.0	37.0	65	26.3	0	1	338	0.00	30.144 
22:30	36.9	36.9	36.9	65	26.3	0	1	338	0.00	30.147 
22:35	36.8	36.8	36.8	66	26.5	0	1	338	0.00	30.147 
22:40	36.6	36.6	36.6	66	26.3	0	1	338	0.00	30.147 
22:45	36.6	36.6	36.6	67	26.7	0	1	338	0.00	30.152 
22:50	36.5	36.5	36.5	67	26.6	0	1	338	0.00	30.152 
22:55	36.5	36.5	36.5	67	26.6	0	0	---	0.00	30.152 
23:00	36.3	36.3	36.3	68	26.8	0	0	---	0.00	30.153 
23:05	36.3	36.3	36.3	68	26.8	0	1	338	0.00	30.153 
23:10	36.3	36.3	36.3	68	26.8	0	0	---	0.00	30.153 
23:15	36.2	36.2	36.2	69	27.0	0	1	338	0.00	30.158 
23:20	36.0	36.0	36.0	69	26.8	0	1	338	0.00	30.158 
23:25	36.0	36.0	36.0	69	26.8	0	1	338	0.00	30.158 
23:30	35.9	35.9	35.9	69	26.7	0	0	---	0.00	30.163 
23:35	35.9	35.9	35.9	70	27.1	0	1	338	0.00	30.163 
23:40	35.8	35.8	35.8	70	27.0	0	1	338	0.00	30.163 
23:45	35.9	35.9	35.9	71	27.4	0	0	---	0.00	30.166 
23:50	35.9	35.9	35.9	71	27.4	0	2	338	0.00	30.166 
23:55	36.0	36.0	36.0	71	27.5	0	1	338	0.00	30.166 

CoCoRaHS
IN-AL-39
A2 Web Hosting
Creative Commons License
GoDaddy
search engine by freefind advanced

loaded 2018-11-12 15:40:39 • last modified 2010-11-18 10:43:29
Privacy PolicyDisclaimer
• wx.awcolley.com is powered by PmWiki v.2002016 •
• all content (unless otherwise noted) © 2018 A W Colley